createdAt,value
2018-01-27T00:01:59.521Z,71.20
2018-01-27T00:04:27.011Z,59.77
2018-01-27T00:06:54.479Z,70.67
2018-01-27T00:09:21.946Z,66.47
2018-01-27T00:11:49.398Z,71.63
2018-01-27T00:14:16.878Z,67.63
2018-01-27T00:16:44.373Z,57.07
2018-01-27T00:19:11.837Z,75.93
2018-01-27T00:21:40.070Z,67.17
2018-01-27T00:24:07.530Z,79.53
2018-01-27T00:26:35.025Z,80.83
2018-01-27T00:29:02.491Z,72.33
2018-01-27T00:31:30.747Z,74.20
2018-01-27T00:33:58.230Z,78.40
2018-01-27T00:36:26.496Z,71.70
2018-01-27T00:38:53.950Z,67.63
2018-01-27T00:41:21.420Z,76.30
2018-01-27T00:43:49.665Z,76.90
2018-01-27T00:46:17.158Z,60.63
2018-01-27T00:48:45.395Z,68.63
2018-01-27T00:51:12.866Z,62.27
2018-01-27T00:53:40.343Z,85.93
2018-01-27T00:56:07.814Z,70.60
2018-01-27T00:58:36.078Z,72.40
2018-01-27T01:01:03.538Z,74.07
2018-01-27T01:03:31.007Z,62.03
2018-01-27T01:05:59.267Z,69.37
2018-01-27T01:08:26.740Z,60.83
2018-01-27T01:10:55.027Z,71.53
2018-01-27T01:13:23.267Z,74.00
2018-01-27T01:15:50.736Z,65.37
2018-01-27T01:18:18.201Z,65.90
2018-01-27T01:20:46.446Z,69.10
2018-01-27T01:23:14.678Z,77.63
2018-01-27T01:25:42.188Z,74.07
2018-01-27T01:28:09.681Z,73.27
2018-01-27T01:30:37.942Z,76.33
2018-01-27T01:33:05.431Z,85.77
2018-01-27T01:35:32.916Z,94.93
2018-01-27T01:38:00.385Z,78.93
2018-01-27T01:40:27.846Z,84.50
2018-01-27T01:43:00.997Z,85.23
2018-01-27T01:45:29.271Z,93.90
2018-01-27T01:47:56.782Z,111.30
2018-01-27T01:50:24.251Z,107.97
2018-01-27T01:52:51.725Z,108.17
2018-01-27T01:55:19.194Z,98.93
2018-01-27T01:57:46.667Z,91.43
2018-01-27T02:00:14.145Z,106.37
2018-01-27T02:02:41.629Z,115.80
2018-01-27T02:05:09.117Z,111.17
2018-01-27T02:07:36.566Z,101.87
2018-01-27T02:10:04.030Z,118.33
2018-01-27T02:12:31.501Z,113.73
2018-01-27T02:14:59.732Z,123.93
2018-01-27T02:17:27.241Z,102.30
2018-01-27T02:19:54.726Z,106.27
2018-01-27T02:22:22.222Z,105.70
2018-01-27T02:24:49.692Z,115.53
2018-01-27T02:27:17.163Z,118.47
2018-01-27T02:29:44.653Z,126.37
2018-01-27T02:32:12.145Z,127.30
2018-01-27T02:34:39.630Z,102.90
2018-01-27T02:37:07.096Z,121.83
2018-01-27T02:39:34.588Z,144.37
2018-01-27T02:42:02.130Z,123.13
2018-01-27T02:44:30.365Z,125.30
2018-01-27T02:46:57.845Z,129.37
2018-01-27T02:49:25.323Z,126.93
2018-01-27T02:51:53.569Z,135.37
2018-01-27T02:54:21.056Z,146.90
2018-01-27T02:56:49.313Z,159.30
2018-01-27T02:59:16.795Z,158.57
2018-01-27T03:01:45.048Z,158.40
2018-01-27T03:04:12.533Z,157.83
2018-01-27T03:06:40.799Z,169.13
2018-01-27T03:09:09.027Z,147.03
2018-01-27T03:11:36.513Z,169.63
2018-01-27T03:14:03.976Z,153.47
2018-01-27T03:16:31.471Z,158.73
2018-01-27T03:18:58.937Z,173.13
2018-01-27T03:21:26.430Z,186.67
2018-01-27T03:23:53.898Z,174.10
2018-01-27T03:26:21.415Z,150.10
2018-01-27T03:28:48.904Z,168.30
2018-01-27T03:31:16.388Z,187.97
2018-01-27T03:33:43.871Z,161.03
2018-01-27T03:36:12.102Z,182.90
2018-01-27T03:38:39.589Z,156.20
2018-01-27T03:41:07.839Z,153.33
2018-01-27T03:43:35.312Z,179.20
2018-01-27T03:46:02.876Z,165.53
2018-01-27T03:48:30.368Z,167.77
2018-01-27T03:50:57.853Z,148.30
2018-01-27T03:53:25.315Z,164.60
2018-01-27T03:55:52.786Z,169.93
2018-01-27T03:58:20.261Z,216.90
2018-01-27T04:00:47.746Z,203.37
2018-01-27T04:03:15.978Z,193.30
2018-01-27T04:05:43.466Z,225.03
2018-01-27T04:08:10.990Z,188.43
2018-01-27T04:10:38.474Z,226.37
2018-01-27T04:13:05.940Z,225.33
2018-01-27T04:15:33.412Z,217.50
2018-01-27T04:18:01.652Z,240.77
2018-01-27T04:20:29.123Z,249.03
2018-01-27T04:22:56.586Z,267.60
2018-01-27T04:25:24.060Z,260.07
2018-01-27T04:27:52.311Z,243.60
2018-01-27T04:30:20.609Z,238.50
2018-01-27T04:32:48.084Z,221.60
2018-01-27T04:35:16.306Z,225.57
2018-01-27T04:37:44.185Z,197.73
2018-01-27T04:40:11.664Z,192.30
2018-01-27T04:42:39.141Z,196.90
2018-01-27T04:45:07.397Z,202.53
2018-01-27T04:47:34.874Z,219.47
2018-01-27T04:50:02.379Z,205.33
2018-01-27T04:52:29.909Z,233.63
2018-01-27T04:54:57.376Z,223.37
2018-01-27T04:57:24.911Z,226.97
2018-01-27T04:59:53.179Z,247.00
2018-01-27T05:02:20.651Z,228.17
2018-01-27T05:04:48.898Z,226.57
2018-01-27T05:07:16.377Z,212.27
2018-01-27T05:09:44.617Z,253.57
2018-01-27T05:12:12.110Z,237.27
2018-01-27T05:14:39.610Z,225.63
2018-01-27T05:17:07.104Z,244.47
2018-01-27T05:19:34.574Z,212.20
2018-01-27T05:22:02.038Z,231.57
2018-01-27T05:24:29.501Z,216.17
2018-01-27T05:26:57.909Z,216.03
2018-01-27T05:29:25.375Z,236.17
2018-01-27T05:31:52.841Z,205.73
2018-01-27T05:34:20.306Z,229.73
2018-01-27T05:36:47.858Z,224.63
2018-01-27T05:39:15.357Z,211.33
2018-01-27T05:41:42.871Z,199.53
2018-01-27T05:44:10.360Z,198.47
2018-01-27T05:46:37.829Z,229.30
2018-01-27T05:49:05.294Z,260.40
2018-01-27T05:51:32.792Z,263.60
2018-01-27T05:54:01.099Z,246.43
2018-01-27T05:56:29.311Z,301.17
2018-01-27T05:58:56.822Z,291.10
2018-01-27T06:01:24.313Z,312.50
2018-01-27T06:03:51.788Z,292.97
2018-01-27T06:06:19.254Z,345.30
2018-01-27T06:08:46.730Z,292.10
2018-01-27T06:11:14.966Z,297.03
2018-01-27T06:13:42.426Z,286.33
2018-01-27T06:16:09.904Z,323.53
2018-01-27T06:18:37.404Z,352.70
2018-01-27T06:21:04.884Z,346.67
2018-01-27T06:23:32.375Z,269.37
2018-01-27T06:25:59.861Z,264.73
2018-01-27T06:28:28.102Z,246.43
2018-01-27T06:30:55.569Z,227.80
2018-01-27T06:33:23.047Z,213.60
2018-01-27T06:35:51.270Z,181.80
2018-01-27T06:38:19.514Z,167.90
2018-01-27T06:40:46.995Z,171.87
2018-01-27T06:43:14.458Z,158.97
2018-01-27T06:45:41.921Z,163.80
2018-01-27T06:48:09.405Z,188.27
2018-01-27T06:50:36.903Z,185.27
2018-01-27T06:53:05.133Z,175.77
2018-01-27T06:55:32.605Z,173.77
2018-01-27T06:58:00.093Z,146.87
2018-01-27T07:00:28.321Z,183.47
2018-01-27T07:02:55.823Z,194.67
2018-01-27T07:05:24.074Z,167.57
2018-01-27T07:07:52.239Z,182.47
2018-01-27T07:10:19.718Z,175.43
2018-01-27T07:12:47.168Z,162.30
2018-01-27T07:15:14.650Z,191.83
2018-01-27T07:17:43.302Z,158.17
2018-01-27T07:20:10.865Z,139.83
2018-01-27T07:22:38.330Z,133.70
2018-01-27T07:25:05.880Z,140.70
2018-01-27T07:27:33.399Z,128.20
2018-01-27T07:30:00.909Z,122.13
2018-01-27T07:32:28.370Z,125.57
2018-01-27T07:34:55.826Z,123.30
2018-01-27T07:37:23.540Z,117.67
2018-01-27T07:39:51.028Z,125.07
2018-01-27T07:42:18.484Z,116.93
2018-01-27T07:44:46.786Z,133.43
2018-01-27T07:47:14.284Z,123.20
2018-01-27T07:49:41.753Z,121.33
2018-01-27T07:52:09.222Z,103.33
2018-01-27T07:54:36.714Z,97.03
2018-01-27T07:57:04.202Z,114.07
2018-01-27T07:59:32.439Z,120.43
2018-01-27T08:01:59.915Z,116.73
2018-01-27T08:04:27.370Z,97.50
2018-01-27T08:06:54.886Z,85.13
2018-01-27T08:09:22.363Z,85.50
2018-01-27T08:11:49.851Z,77.97
2018-01-27T08:14:17.359Z,88.03
2018-01-27T08:16:44.868Z,91.07
2018-01-27T08:19:12.356Z,86.83
2018-01-27T08:21:40.579Z,87.50
2018-01-27T08:24:08.156Z,82.07
2018-01-27T08:26:35.685Z,70.60
2018-01-27T08:29:03.179Z,67.40
2018-01-27T08:31:30.656Z,70.13
2018-01-27T08:33:58.932Z,62.77
2018-01-27T08:36:26.594Z,66.80
2018-01-27T08:38:54.109Z,63.90
2018-01-27T08:41:21.574Z,57.53
2018-01-27T08:43:49.102Z,65.70
2018-01-27T08:46:16.595Z,57.80
2018-01-27T08:48:44.116Z,52.37
2018-01-27T08:51:11.609Z,46.07
2018-01-27T08:53:39.093Z,49.80
2018-01-27T08:56:06.676Z,54.43
2018-01-27T08:58:35.115Z,49.93
2018-01-27T09:01:02.623Z,50.53
2018-01-27T09:03:30.850Z,45.30
2018-01-27T09:05:58.377Z,43.20
2018-01-27T09:08:25.835Z,40.07
2018-01-27T09:10:53.354Z,34.23
2018-01-27T09:13:20.849Z,39.73
2018-01-27T09:15:48.345Z,42.43
2018-01-27T09:18:15.950Z,29.57
2018-01-27T09:20:43.468Z,34.23
2018-01-27T09:23:10.945Z,33.47
2018-01-27T09:25:38.410Z,37.03
2018-01-27T09:28:05.937Z,26.40
2018-01-27T09:30:33.396Z,33.53
2018-01-27T09:33:00.899Z,31.90
2018-01-27T09:35:29.207Z,25.63
2018-01-27T09:37:56.764Z,31.90
2018-01-27T09:40:24.261Z,39.03
2018-01-27T09:42:51.758Z,27.97
2018-01-27T09:45:19.247Z,30.13
2018-01-27T09:47:47.308Z,30.60
2018-01-27T09:50:14.801Z,31.67
2018-01-27T09:52:42.306Z,34.03
2018-01-27T09:55:10.630Z,32.23
2018-01-27T09:57:38.135Z,27.43
2018-01-27T10:00:06.402Z,35.20
2018-01-27T10:02:33.895Z,34.17
2018-01-27T10:05:01.455Z,27.20
2018-01-27T10:07:29.680Z,26.07
2018-01-27T10:09:57.186Z,35.90
2018-01-27T10:12:24.661Z,26.10
2018-01-27T10:14:52.143Z,27.83
2018-01-27T10:17:19.633Z,27.50
2018-01-27T10:19:47.122Z,24.23
2018-01-27T10:22:15.363Z,31.50
2018-01-27T10:24:42.873Z,35.00
2018-01-27T10:27:10.379Z,34.03
2018-01-27T10:29:37.855Z,25.70
2018-01-27T10:32:05.472Z,25.47
2018-01-27T10:34:32.938Z,28.90
2018-01-27T10:37:00.424Z,28.53
2018-01-27T10:39:27.910Z,24.07
2018-01-27T10:41:55.408Z,21.77
2018-01-27T10:44:22.921Z,23.03
2018-01-27T10:46:51.169Z,25.93
2018-01-27T10:49:18.713Z,23.60
2018-01-27T10:51:46.172Z,23.37
2018-01-27T10:54:13.662Z,22.90
2018-01-27T10:56:43.038Z,14.93
2018-01-27T10:59:10.623Z,22.27
2018-01-27T11:01:38.089Z,15.13
2018-01-27T11:04:05.589Z,22.60
2018-01-27T11:06:33.059Z,17.23
2018-01-27T11:09:00.544Z,22.97
2018-01-27T11:11:28.029Z,19.10
2018-01-27T11:13:56.250Z,21.87
2018-01-27T11:16:24.124Z,26.33
2018-01-27T11:18:52.988Z,16.00
2018-01-27T11:21:20.500Z,20.90
2018-01-27T11:23:47.998Z,18.10
2018-01-27T11:26:15.658Z,24.83
2018-01-27T11:28:43.291Z,17.07
2018-01-27T11:31:10.768Z,22.80
2018-01-27T11:33:38.995Z,18.23
2018-01-27T11:36:07.170Z,14.97
2018-01-27T11:38:35.531Z,20.43
2018-01-27T11:41:03.873Z,19.60
2018-01-27T11:43:32.122Z,20.10
2018-01-27T11:45:59.601Z,18.30
2018-01-27T11:48:27.217Z,22.97
2018-01-27T11:50:54.666Z,19.17
2018-01-27T11:53:22.171Z,19.23
2018-01-27T11:55:49.665Z,15.03
2018-01-27T11:58:17.965Z,12.53
2018-01-27T12:00:45.447Z,15.77
2018-01-27T12:03:12.919Z,15.60
2018-01-27T12:05:40.406Z,13.70
2018-01-27T12:08:08.702Z,11.17
2018-01-27T12:10:36.299Z,16.10
2018-01-27T12:13:03.801Z,11.07
2018-01-27T12:15:32.065Z,11.77
2018-01-27T12:17:59.616Z,10.90
2018-01-27T12:20:27.114Z,13.53
2018-01-27T12:22:54.586Z,10.20
2018-01-27T12:25:22.083Z,10.37
2018-01-27T12:27:49.553Z,13.53
2018-01-27T12:30:17.023Z,18.63
2018-01-27T12:32:46.251Z,13.20
2018-01-27T12:35:13.744Z,15.80
2018-01-27T12:37:41.679Z,10.33
2018-01-27T12:40:09.187Z,11.50
2018-01-27T12:42:36.694Z,16.17
2018-01-27T12:45:04.193Z,23.43
2018-01-27T12:47:31.690Z,19.07
2018-01-27T12:49:59.935Z,17.37
2018-01-27T12:52:27.409Z,21.23
2018-01-27T12:54:54.909Z,20.83
2018-01-27T12:57:22.454Z,16.53
2018-01-27T12:59:50.702Z,18.07
2018-01-27T13:02:18.201Z,19.97
2018-01-27T13:04:45.681Z,23.03
2018-01-27T13:07:13.138Z,18.20
2018-01-27T13:09:40.639Z,31.33
2018-01-27T13:12:08.131Z,19.10
2018-01-27T13:14:35.632Z,19.30
2018-01-27T13:17:03.210Z,22.97
2018-01-27T13:19:30.682Z,22.27
2018-01-27T13:21:58.950Z,17.73
2018-01-27T13:24:26.449Z,20.83
2018-01-27T13:26:53.949Z,15.20
2018-01-27T13:29:21.417Z,18.50
2018-01-27T13:31:48.891Z,20.47
2018-01-27T13:34:16.467Z,19.13
2018-01-27T13:36:44.747Z,17.87
2018-01-27T13:39:12.248Z,16.67
2018-01-27T13:41:40.251Z,15.70
2018-01-27T13:44:07.748Z,13.20
2018-01-27T13:46:35.270Z,14.50
2018-01-27T13:49:02.747Z,16.60
2018-01-27T13:51:30.984Z,14.30
2018-01-27T13:53:59.222Z,12.50
2018-01-27T13:56:26.695Z,14.93
2018-01-27T13:58:54.166Z,18.83
2018-01-27T14:01:21.673Z,12.47
2018-01-27T14:03:49.148Z,15.47
2018-01-27T14:06:17.397Z,8.30
2018-01-27T14:08:44.882Z,10.93
2018-01-27T14:11:12.388Z,13.07
2018-01-27T14:13:40.050Z,16.07
2018-01-27T14:16:07.511Z,11.03
2018-01-27T14:18:35.081Z,9.00
2018-01-27T14:21:02.580Z,20.53
2018-01-27T14:23:30.826Z,12.40
2018-01-27T14:25:58.360Z,7.57
2018-01-27T14:28:25.824Z,11.97
2018-01-27T14:30:53.313Z,12.90
2018-01-27T14:33:20.824Z,7.47
2018-01-27T14:35:48.299Z,10.27
2018-01-27T14:38:15.782Z,12.97
2018-01-27T14:40:43.326Z,9.80
2018-01-27T14:43:10.782Z,8.00
2018-01-27T14:45:38.273Z,13.00
2018-01-27T14:48:05.744Z,8.70
2018-01-27T14:50:33.979Z,11.43
2018-01-27T14:53:01.506Z,12.13
2018-01-27T14:55:29.718Z,11.40
2018-01-27T14:57:57.276Z,9.73
2018-01-27T15:00:24.875Z,11.97
2018-01-27T15:02:53.102Z,7.07
2018-01-27T15:05:20.739Z,15.30
2018-01-27T15:07:48.215Z,9.20
2018-01-27T15:10:15.678Z,10.43
2018-01-27T15:12:44.006Z,11.20
2018-01-27T15:15:12.251Z,8.63
2018-01-27T15:17:40.134Z,7.00
2018-01-27T15:20:08.481Z,12.10
2018-01-27T15:22:35.992Z,9.37
2018-01-27T15:25:04.437Z,11.33
2018-01-27T15:27:31.982Z,9.83
2018-01-27T15:29:59.462Z,10.50
2018-01-27T15:32:26.973Z,10.27
2018-01-27T15:34:54.490Z,16.30
2018-01-27T15:37:22.182Z,12.60
2018-01-27T15:39:50.460Z,8.10
2018-01-27T15:42:18.739Z,11.83
2018-01-27T15:44:46.240Z,11.57
2018-01-27T15:47:13.729Z,13.23
2018-01-27T15:49:41.358Z,13.60
2018-01-27T15:52:08.839Z,8.73
2018-01-27T15:54:36.315Z,6.87
2018-01-27T15:57:03.796Z,14.43
2018-01-27T15:59:31.361Z,13.83
2018-01-27T16:01:58.870Z,11.93
2018-01-27T16:04:26.374Z,13.87
2018-01-27T16:06:54.014Z,15.90
2018-01-27T16:09:21.535Z,8.37
2018-01-27T16:11:49.068Z,8.37
2018-01-27T16:14:16.511Z,14.77
2018-01-27T16:16:44.108Z,10.73
2018-01-27T16:19:11.586Z,9.73
2018-01-27T16:21:39.043Z,12.50
2018-01-27T16:24:06.504Z,24.33
2018-01-27T16:26:34.027Z,14.13
2018-01-27T16:29:01.677Z,10.93
2018-01-27T16:31:29.150Z,15.17
2018-01-27T16:33:56.612Z,13.90
2018-01-27T16:36:24.191Z,13.93
2018-01-27T16:38:51.671Z,19.93
2018-01-27T16:41:19.146Z,12.03
2018-01-27T16:43:47.396Z,15.63
2018-01-27T16:46:14.861Z,20.70
2018-01-27T16:48:42.338Z,17.77
2018-01-27T16:51:09.783Z,15.00
2018-01-27T16:53:37.276Z,16.63
2018-01-27T16:56:04.830Z,17.60
2018-01-27T16:58:33.066Z,12.77
2018-01-27T17:01:00.515Z,9.40
2018-01-27T17:03:28.099Z,11.27
2018-01-27T17:05:56.317Z,10.73
2018-01-27T17:08:23.806Z,7.50
2018-01-27T17:10:51.263Z,9.30
2018-01-27T17:13:18.727Z,8.00
2018-01-27T17:15:46.207Z,12.73
2018-01-27T17:18:13.707Z,8.63
2018-01-27T17:20:41.980Z,8.60
2018-01-27T17:23:09.453Z,13.27
2018-01-27T17:25:36.940Z,9.47
2018-01-27T17:28:04.406Z,7.03
2018-01-27T17:30:32.034Z,8.00
2018-01-27T17:32:59.521Z,9.83
2018-01-27T17:35:26.990Z,6.10
2018-01-27T17:37:54.689Z,9.07
2018-01-27T17:40:22.166Z,8.20
2018-01-27T17:42:49.624Z,17.07
2018-01-27T17:45:17.072Z,6.47
2018-01-27T17:47:44.569Z,14.93
2018-01-27T17:50:12.025Z,6.87
2018-01-27T17:52:39.587Z,6.97
2018-01-27T17:55:07.090Z,10.40
2018-01-27T17:57:35.330Z,6.43
2018-01-27T18:00:02.805Z,15.40
2018-01-27T18:02:30.281Z,12.67
2018-01-27T18:04:58.544Z,9.00
2018-01-27T18:07:26.007Z,7.67
2018-01-27T18:09:53.474Z,11.90
2018-01-27T18:12:21.352Z,12.77
2018-01-27T18:14:48.795Z,10.80
2018-01-27T18:17:16.299Z,8.20
2018-01-27T18:19:43.821Z,10.47
2018-01-27T18:22:11.541Z,20.43
2018-01-27T18:24:40.812Z,14.63
2018-01-27T18:27:08.286Z,15.73
2018-01-27T18:29:35.757Z,9.73
2018-01-27T18:32:03.221Z,7.90
2018-01-27T18:34:30.709Z,21.47
2018-01-27T18:36:58.457Z,10.23
2018-01-27T18:39:26.103Z,9.60
2018-01-27T18:41:53.692Z,14.50
2018-01-27T18:44:21.186Z,8.87
2018-01-27T18:46:48.659Z,5.90
2018-01-27T18:49:16.155Z,12.27
2018-01-27T18:51:43.620Z,7.30
2018-01-27T18:54:11.085Z,8.47
2018-01-27T18:56:38.682Z,6.77
2018-01-27T18:59:06.211Z,12.17
2018-01-27T19:01:35.570Z,7.83
2018-01-27T19:04:03.224Z,8.40
2018-01-27T19:06:30.687Z,12.67
2018-01-27T19:08:58.155Z,8.43
2018-01-27T19:11:25.678Z,12.73
2018-01-27T19:13:54.894Z,10.13
2018-01-27T19:16:22.407Z,7.53
2018-01-27T19:18:49.903Z,10.30
2018-01-27T19:21:17.391Z,9.50
2018-01-27T19:23:44.842Z,7.00
2018-01-27T19:26:12.357Z,6.73
2018-01-27T19:28:39.821Z,10.37
2018-01-27T19:31:10.839Z,6.83
2018-01-27T19:33:38.287Z,6.00
2018-01-27T19:36:06.368Z,7.47
2018-01-27T19:38:35.031Z,6.60
2018-01-27T19:41:03.422Z,6.40
2018-01-27T19:43:33.573Z,6.40
2018-01-27T19:46:01.112Z,7.33
2018-01-27T19:48:29.449Z,9.13
2018-01-27T19:50:57.006Z,7.10
2018-01-27T19:53:24.481Z,7.87
2018-01-27T19:55:52.024Z,13.80
2018-01-27T19:58:19.495Z,8.10
2018-01-27T20:00:47.034Z,15.13
2018-01-27T20:03:15.294Z,6.37
2018-01-27T20:05:42.906Z,6.40
2018-01-27T20:08:10.468Z,6.90
2018-01-27T20:10:37.980Z,8.53
2018-01-27T20:13:06.270Z,10.80
2018-01-27T20:15:33.774Z,6.73
2018-01-27T20:18:01.302Z,6.00
2018-01-27T20:20:29.843Z,7.20
2018-01-27T20:22:57.318Z,5.90
2018-01-27T20:25:24.874Z,5.97
2018-01-27T20:27:53.173Z,8.43
2018-01-27T20:30:20.664Z,6.17
2018-01-27T20:32:48.120Z,4.70
2018-01-27T20:35:15.623Z,6.03
2018-01-27T20:37:43.968Z,6.53
2018-01-27T20:40:11.430Z,5.47
2018-01-27T20:42:39.062Z,5.30
2018-01-27T20:45:06.536Z,4.57
2018-01-27T20:47:34.026Z,5.43
2018-01-27T20:50:01.479Z,3.97
2018-01-27T20:52:28.966Z,4.30
2018-01-27T20:54:56.448Z,3.60
2018-01-27T20:57:23.928Z,9.63
2018-01-27T20:59:51.608Z,7.03
2018-01-27T21:02:19.146Z,4.27
2018-01-27T21:04:46.625Z,3.80
2018-01-27T21:07:14.677Z,4.13
2018-01-27T21:09:42.182Z,6.07
2018-01-27T21:12:10.427Z,7.27
2018-01-27T21:14:37.876Z,4.30
2018-01-27T21:17:05.364Z,4.90
2018-01-27T21:19:32.853Z,4.63
2018-01-27T21:22:00.338Z,4.50
2018-01-27T21:24:27.826Z,5.83
2018-01-27T21:26:55.309Z,4.40
2018-01-27T21:29:23.547Z,4.07
2018-01-27T21:31:51.005Z,4.00
2018-01-27T21:34:18.692Z,4.27
2018-01-27T21:36:46.948Z,4.00
2018-01-27T21:39:14.431Z,7.73
2018-01-27T21:41:41.938Z,4.07
2018-01-27T21:44:09.493Z,4.90
2018-01-27T21:46:37.002Z,5.97
2018-01-27T21:49:05.245Z,5.33
2018-01-27T21:51:32.911Z,4.87
2018-01-27T21:54:00.465Z,3.87
2018-01-27T21:56:27.948Z,3.70
2018-01-27T21:58:55.620Z,3.23
2018-01-27T22:01:23.152Z,3.43
2018-01-27T22:03:50.634Z,4.40
2018-01-27T22:06:18.082Z,3.80
2018-01-27T22:08:45.685Z,3.50
2018-01-27T22:11:13.160Z,3.77
2018-01-27T22:13:40.649Z,5.90
2018-01-27T22:16:08.115Z,5.67
2018-01-27T22:18:35.582Z,4.40
2018-01-27T22:21:03.048Z,3.10
2018-01-27T22:23:30.525Z,3.73
2018-01-27T22:25:58.765Z,4.83
2018-01-27T22:28:26.232Z,4.30
2018-01-27T22:30:53.712Z,4.00
2018-01-27T22:33:21.173Z,4.90
2018-01-27T22:35:49.421Z,4.40
2018-01-27T22:38:16.897Z,5.00
2018-01-27T22:40:44.361Z,3.97
2018-01-27T22:43:11.816Z,3.50
2018-01-27T22:45:39.296Z,6.40
2018-01-27T22:48:07.574Z,4.80
2018-01-27T22:50:35.813Z,5.13
2018-01-27T22:53:03.262Z,4.00
2018-01-27T22:55:30.745Z,5.40
2018-01-27T22:57:58.201Z,4.70
2018-01-27T23:00:26.537Z,3.90
2018-01-27T23:02:54.038Z,4.53
2018-01-27T23:05:21.510Z,3.40
2018-01-27T23:07:49.766Z,5.83
2018-01-27T23:10:17.223Z,5.20
2018-01-27T23:12:44.694Z,4.90
2018-01-27T23:15:12.158Z,13.13
2018-01-27T23:17:39.619Z,6.20
2018-01-27T23:20:07.862Z,7.50
2018-01-27T23:22:35.341Z,7.03
2018-01-27T23:25:02.798Z,6.60
2018-01-27T23:27:30.269Z,7.17
2018-01-27T23:29:57.733Z,5.63
2018-01-27T23:32:25.970Z,6.60
2018-01-27T23:34:53.434Z,7.87
2018-01-27T23:37:20.891Z,8.03
2018-01-27T23:39:48.362Z,5.70
2018-01-27T23:42:15.824Z,6.40
2018-01-27T23:44:43.321Z,5.97
2018-01-27T23:47:10.774Z,7.27
2018-01-27T23:49:38.249Z,5.57
2018-01-27T23:52:05.705Z,9.03
2018-01-27T23:54:33.177Z,10.67
2018-01-27T23:57:00.642Z,11.50
2018-01-27T23:59:28.110Z,7.07
